Time;durP1;ratioP1;P1;durP2;ratioP2;P2;SDS_P1;SDS_P2;PMS_P1;PMS_P2;Temp;Humidity;BMP_temperature;BMP_pressure;BME280_temperature;BME280_humidity;BME280_pressure;Samples;Min_cycle;Max_cycle;Signal;HPM_P1;HPM_P2
2022/05/25 00:01:38;;;;;;;9.07;3.90;;;;;;;9.78;81.95;101146.09;5111859;28;20088;-66
2022/05/25 00:04:05;;;;;;;5.88;4.60;;;;;;;9.78;82.30;101148.81;5112265;28;20126;-66
2022/05/25 00:06:30;;;;;;;4.97;3.65;;;;;;;9.73;81.39;101146.38;5111971;28;20391;-67
2022/05/25 00:08:56;;;;;;;5.75;4.32;;;;;;;9.72;81.26;101152.81;5109333;28;20032;-65
2022/05/25 00:11:21;;;;;;;7.10;4.80;;;;;;;9.65;82.38;101149.63;5102144;27;20156;-69
2022/05/25 00:13:47;;;;;;;6.75;4.47;;;;;;;9.62;81.78;101144.38;5092389;28;20027;-69
2022/05/25 00:16:12;;;;;;;7.57;4.65;;;;;;;9.60;82.45;101150.84;5107790;28;20035;-65
2022/05/25 00:19:58;;;;;;;5.50;4.63;;;;;;;9.58;82.26;101152.81;5097833;28;20057;-69
2022/05/25 00:21:23;;;;;;;7.38;5.13;;;;;;;9.56;83.07;101150.19;5104742;28;20039;-69
2022/05/25 00:23:48;;;;;;;6.63;4.70;;;;;;;9.50;83.61;101153.28;5110068;28;20047;-69
2022/05/25 00:26:14;;;;;;;8.93;5.07;;;;;;;9.52;82.75;101154.06;5106455;28;20068;-70
2022/05/25 00:28:39;;;;;;;5.93;4.78;;;;;;;9.51;82.76;101154.16;5111029;28;20108;-66
2022/05/25 00:31:04;;;;;;;4.82;4.22;;;;;;;9.48;83.13;101160.66;5110049;28;20035;-69
2022/05/25 00:33:30;;;;;;;6.32;5.10;;;;;;;9.47;83.96;101158.94;5111101;28;20031;-69
2022/05/25 00:35:55;;;;;;;7.60;4.88;;;;;;;9.47;82.91;101160.78;5100778;28;20028;-65
2022/05/25 00:38:20;;;;;;;7.63;4.95;;;;;;;9.45;82.82;101158.13;5107431;28;20089;-66
2022/05/25 00:40:46;;;;;;;7.95;5.80;;;;;;;9.42;84.13;101159.22;5108474;28;20066;-66
2022/05/25 00:43:13;;;;;;;7.32;5.38;;;;;;;9.39;83.79;101153.97;5110622;28;20032;-65
2022/05/25 00:45:44;;;;;;;8.30;5.90;;;;;;;9.38;83.53;101156.78;5109811;28;20114;-69
2022/05/25 00:48:18;;;;;;;8.80;6.20;;;;;;;9.37;84.51;101157.72;5111753;28;20502;-69
2022/05/25 00:53:28;;;;;;;8.27;6.10;;;;;;;9.38;83.97;101170.38;5098350;28;20116;-69
2022/05/25 00:55:55;;;;;;;9.07;6.47;;;;;;;9.37;84.07;101176.75;5109326;28;20055;-69
2022/05/25 00:58:20;;;;;;;8.30;6.13;;;;;;;9.34;84.18;101166.97;5111118;28;20046;-66
2022/05/25 01:00:45;;;;;;;8.90;6.00;;;;;;;9.33;84.19;101180.63;5110499;28;20035;-69
2022/05/25 01:03:11;;;;;;;7.95;5.45;;;;;;;9.29;84.11;101174.53;5105254;28;20386;-69
2022/05/25 01:05:56;;;;;;;8.18;6.15;;;;;;;9.25;83.59;101177.53;5110595;28;20035;-69
2022/05/25 01:08:36;;;;;;;11.48;6.18;;;;;;;9.23;83.73;101182.16;5110487;28;20035;-70
2022/05/25 01:11:40;;;;;;;10.18;6.03;;;;;;;9.21;83.51;101184.97;5103392;28;20498;-69
2022/05/25 01:14:05;;;;;;;;;;;;;;;9.22;82.25;101175.84;5111697;28;20032;-69
2022/05/25 01:16:43;;;;;;;8.50;7.10;;;;;;;9.19;84.75;101186.91;5110466;28;20006;-66
2022/05/25 01:19:35;;;;;;;10.07;7.05;;;;;;;9.17;84.04;101181.56;5110161;28;20281;-65
2022/05/25 01:22:39;;;;;;;10.90;6.63;;;;;;;9.16;83.42;101182.53;5102453;28;20040;-69
2022/05/25 01:25:11;;;;;;;8.93;6.00;;;;;;;9.14;83.67;101186.34;5083644;28;20426;-69
2022/05/25 01:27:38;;;;;;;10.73;6.88;;;;;;;9.12;83.97;101189.13;5106481;28;20096;-66
2022/05/25 01:30:14;;;;;;;11.27;6.63;;;;;;;9.05;84.65;101185.03;5092390;28;20036;-70
2022/05/25 01:32:55;;;;;;;10.70;8.10;;;;;;;9.05;85.49;101187.75;5109826;28;20048;-69
2022/05/25 01:35:28;;;;;;;11.52;8.02;;;;;;;9.02;86.67;101184.34;5109922;28;20032;-66
2022/05/25 01:38:04;;;;;;;9.05;7.32;;;;;;;8.97;85.58;101184.63;5110940;28;20104;-65
2022/05/25 01:40:48;;;;;;;13.27;7.80;;;;;;;8.97;85.62;101186.47;5105395;28;20062;-70
2022/05/25 01:43:16;;;;;;;11.57;7.78;;;;;;;8.97;85.79;101186.47;5109712;28;20032;-70
2022/05/25 01:45:50;;;;;;;14.13;8.43;;;;;;;8.96;86.53;101190.16;5110893;28;20032;-66
2022/05/25 01:48:18;;;;;;;10.90;6.80;;;;;;;8.97;85.41;101192.75;5096399;28;20031;-70
2022/05/25 01:50:53;;;;;;;11.93;8.15;;;;;;;8.97;86.31;101198.19;5108516;28;20035;-69
2022/05/25 01:53:23;;;;;;;11.00;7.25;;;;;;;8.95;85.47;101194.69;5109292;28;20394;-65
2022/05/25 01:55:54;;;;;;;11.55;7.60;;;;;;;8.95;85.78;101189.25;5108822;28;20031;-70
2022/05/25 01:58:21;;;;;;;14.15;8.60;;;;;;;8.93;86.95;101194.78;5110353;28;20050;-70
2022/05/25 02:00:50;;;;;;;11.07;8.38;;;;;;;8.92;86.28;101192.16;5110749;28;20036;-65
2022/05/25 02:06:19;;;;;;;19.23;8.15;;;;;;;8.87;85.93;101192.44;5111173;28;20565;-65
2022/05/25 02:09:08;;;;;;;8.98;6.80;;;;;;;8.84;84.95;101200.75;5109360;28;20033;-70
2022/05/25 02:11:50;;;;;;;11.23;7.63;;;;;;;8.84;84.94;101197.19;5103498;28;20154;-66
2022/05/25 02:14:42;;;;;;;12.23;8.20;;;;;;;8.84;87.11;101197.19;5097884;28;20390;-66
2022/05/25 02:17:40;;;;;;;10.43;7.25;;;;;;;8.83;86.26;101203.56;5100741;28;20032;-65
2022/05/25 02:20:39;;;;;;;10.70;7.10;;;;;;;8.81;85.33;101200.97;5102596;28;20127;-69
2022/05/25 02:23:14;;;;;;;9.38;7.55;;;;;;;8.80;85.31;101199.19;5068024;28;20044;-69
2022/05/25 02:25:45;;;;;;;12.90;7.47;;;;;;;8.82;86.32;101196.41;5107655;28;20084;-65
2022/05/25 02:28:10;;;;;;;10.68;8.50;;;;;;;8.79;85.78;101200.16;5108078;28;20537;-65
2022/05/25 02:30:40;;;;;;;12.27;8.25;;;;;;;8.75;86.07;101201.31;5110387;28;20028;-69
2022/05/25 02:33:10;;;;;;;11.82;7.68;;;;;;;8.74;86.14;101206.84;5108918;28;20067;-69
2022/05/25 02:35:40;;;;;;;9.82;7.88;;;;;;;8.72;87.13;101204.22;5109461;28;20059;-68
2022/05/25 02:38:07;;;;;;;12.50;8.05;;;;;;;8.73;86.85;101205.09;5103727;28;20118;-70
2022/05/25 02:40:34;;;;;;;10.75;7.97;;;;;;;8.73;86.47;101213.22;5112044;28;20039;-70
2022/05/25 02:43:00;;;;;;;12.18;8.30;;;;;;;8.71;87.21;101210.59;5112435;28;20046;-65
2022/05/25 02:45:25;;;;;;;13.88;8.23;;;;;;;8.72;87.55;101214.16;5114307;28;20031;-70
2022/05/25 02:47:50;;;;;;;11.45;7.80;;;;;;;8.71;87.15;101212.41;5113538;28;20067;-69
2022/05/25 02:50:16;;;;;;;15.45;8.75;;;;;;;8.68;87.26;101219.78;5114086;28;20131;-69
2022/05/25 02:52:42;;;;;;;11.35;7.07;;;;;;;8.68;86.51;101219.78;5114370;28;20436;-69
2022/05/25 02:55:07;;;;;;;9.13;7.90;;;;;;;8.69;86.51;101215.25;5110428;28;20032;-69
2022/05/25 02:57:33;;;;;;;10.10;6.72;;;;;;;8.68;87.40;101219.78;5112828;27;20038;-68
2022/05/25 02:59:59;;;;;;;17.95;7.88;;;;;;;8.65;87.74;101221.81;5114345;27;20038;-69
2022/05/25 03:02:24;;;;;;;10.25;7.70;;;;;;;8.66;87.32;101220.84;5110268;28;20115;-66
2022/05/25 03:04:50;;;;;;;13.05;7.65;;;;;;;8.66;87.47;101226.25;5113967;28;20039;-70
2022/05/25 03:07:16;;;;;;;9.65;7.18;;;;;;;8.67;87.71;101228.00;5113955;28;20035;-66
2022/05/25 03:09:41;;;;;;;10.10;7.72;;;;;;;8.68;87.43;101224.34;5109456;28;20110;-66
2022/05/25 03:12:08;;;;;;;10.95;7.47;;;;;;;8.65;87.23;101232.66;5110736;28;20042;-65
2022/05/25 03:14:35;;;;;;;10.52;7.10;;;;;;;8.61;87.42;101236.50;5113798;28;20077;-66
2022/05/25 03:17:12;;;;;;;11.90;7.05;;;;;;;8.61;87.58;101241.94;5113888;28;20036;-69
2022/05/25 03:19:48;;;;;;;10.98;6.18;;;;;;;8.60;87.38;101240.19;5112883;28;20038;-66
2022/05/25 03:22:13;;;;;;;11.90;7.07;;;;;;;8.59;87.84;101243.88;5113355;28;20046;-65
2022/05/25 03:24:38;;;;;;;15.60;7.50;;;;;;;8.57;87.29;101240.34;5109145;27;20387;-69
2022/05/25 03:27:04;;;;;;;9.10;7.03;;;;;;;8.56;86.82;101242.19;5112273;28;20505;-70
2022/05/25 03:29:30;;;;;;;9.57;6.35;;;;;;;8.51;86.64;101241.59;5112551;28;20043;-69
2022/05/25 03:31:56;;;;;;;8.32;6.45;;;;;;;8.49;87.61;101245.38;5113411;28;20034;-69
2022/05/25 03:34:22;;;;;;;11.13;6.63;;;;;;;8.49;87.09;101242.66;5112120;28;20035;-70
2022/05/25 03:36:48;;;;;;;10.38;6.53;;;;;;;8.46;87.00;101251.81;5112014;28;20436;-66
2022/05/25 03:39:14;;;;;;;10.50;6.68;;;;;;;8.43;87.23;101249.28;5110328;28;20088;-65
2022/05/25 03:41:39;;;;;;;9.75;6.45;;;;;;;8.44;87.42;101259.19;5103450;28;20039;-66
2022/05/25 03:44:05;;;;;;;10.93;6.13;;;;;;;8.46;86.85;101259.09;5111851;28;20363;-69
2022/05/25 03:46:32;;;;;;;9.02;6.50;;;;;;;8.47;87.08;101259.00;5112626;28;20428;-65
2022/05/25 03:48:57;;;;;;;8.23;5.53;;;;;;;8.45;87.30;101260.94;5113081;28;20054;-65
2022/05/25 03:51:23;;;;;;;8.75;6.45;;;;;;;8.48;87.37;101266.16;5113139;28;20027;-71
2022/05/25 03:53:49;;;;;;;9.50;5.50;;;;;;;8.49;86.34;101272.47;5111352;28;20026;-69
2022/05/25 03:56:16;;;;;;;9.75;5.75;;;;;;;8.49;86.93;101269.75;5092039;28;20036;-70
2022/05/25 03:58:43;;;;;;;8.65;5.68;;;;;;;8.49;86.87;101272.47;5112841;28;20036;-66
2022/05/25 04:01:08;;;;;;;6.80;5.80;;;;;;;8.49;87.10;101272.47;5112938;28;20043;-66
2022/05/25 04:03:34;;;;;;;7.72;6.43;;;;;;;8.47;86.85;101275.25;5109492;28;20406;-66
2022/05/25 04:05:59;;;;;;;8.18;5.63;;;;;;;8.49;86.79;101275.19;5112077;28;20394;-70
2022/05/25 04:08:24;;;;;;;10.10;6.13;;;;;;;8.48;87.18;101278.84;5111619;28;20093;-66
2022/05/25 04:10:50;;;;;;;14.38;6.00;;;;;;;8.49;86.78;101283.31;5110533;28;20088;-71
2022/05/25 04:13:16;;;;;;;8.93;5.45;;;;;;;8.49;87.84;101280.63;5110615;28;20054;-70
2022/05/25 04:15:42;;;;;;;12.50;5.97;;;;;;;8.48;88.01;101276.13;5099488;28;20035;-67
2022/05/25 04:18:07;;;;;;;12.57;6.10;;;;;;;8.48;87.38;101278.84;5112622;28;20360;-66
2022/05/25 04:20:33;;;;;;;9.48;5.72;;;;;;;8.51;88.03;101289.53;5111700;28;20035;-69
2022/05/25 04:22:59;;;;;;;10.52;6.57;;;;;;;8.52;88.14;101284.00;5106756;28;20067;-66
2022/05/25 04:25:25;;;;;;;9.88;5.53;;;;;;;8.55;88.13;101291.97;5098792;28;20470;-66
2022/05/25 04:27:52;;;;;;;9.00;5.32;;;;;;;8.56;87.74;101288.28;5103501;28;20043;-69
2022/05/25 04:30:21;;;;;;;10.27;5.63;;;;;;;8.59;87.60;101295.38;5108723;28;20122;-69
2022/05/25 04:32:47;;;;;;;12.98;5.95;;;;;;;8.61;87.79;101285.31;5094331;28;20380;-66
2022/05/25 04:35:15;;;;;;;10.10;6.32;;;;;;;8.64;88.00;101288.72;5091544;28;20030;-66
2022/05/25 04:37:49;;;;;;;11.98;5.80;;;;;;;8.66;88.06;101289.50;5102380;28;20123;-70
2022/05/25 04:40:21;;;;;;;11.05;6.05;;;;;;;8.69;87.89;101288.47;5107639;28;20028;-69
2022/05/25 04:42:48;;;;;;;12.43;5.72;;;;;;;8.73;87.67;101287.34;5095855;28;20025;-67
2022/05/25 04:45:14;;;;;;;8.43;5.28;;;;;;;8.74;88.19;101291.78;5099964;28;20020;-69
2022/05/25 04:47:42;;;;;;;9.35;5.55;;;;;;;8.77;87.46;101294.34;5110971;28;20023;-66
2022/05/25 04:50:10;;;;;;;11.68;5.40;;;;;;;8.81;87.95;101290.50;5105604;28;20051;-66
2022/05/25 04:52:37;;;;;;;9.23;6.43;;;;;;;8.85;87.88;101294.75;5098750;28;20108;-65
2022/05/25 04:55:07;;;;;;;8.10;6.28;;;;;;;8.91;87.33;101301.69;5099925;28;20185;-69
2022/05/25 04:57:32;;;;;;;11.18;6.40;;;;;;;8.92;87.21;101295.28;5097209;28;20039;-65
2022/05/25 05:00:00;;;;;;;11.63;6.22;;;;;;;8.99;87.82;101302.09;5090983;28;20097;-67
2022/05/25 05:02:26;;;;;;;10.32;5.85;;;;;;;9.03;87.12;101308.22;5098231;28;20063;-69
2022/05/25 05:04:52;;;;;;;13.35;5.95;;;;;;;9.04;87.01;101308.09;5110597;28;20432;-69
2022/05/25 05:07:17;;;;;;;7.85;6.03;;;;;;;9.09;87.48;101313.28;5111605;27;20081;-67
2022/05/25 05:09:45;;;;;;;10.32;6.00;;;;;;;9.14;87.48;101313.91;5108716;27;20040;-66
2022/05/25 05:12:12;;;;;;;8.80;6.10;;;;;;;9.16;87.79;101314.69;5108806;28;20493;-66
2022/05/25 05:14:38;;;;;;;10.05;5.85;;;;;;;9.19;87.54;101309.06;5111544;28;20372;-66
2022/05/25 05:17:06;;;;;;;8.25;4.95;;;;;;;9.23;87.44;101315.16;5111536;28;20047;-70
2022/05/25 05:19:47;;;;;;;21.48;6.38;;;;;;;9.26;88.22;101309.56;5108178;28;20031;-66
2022/05/25 05:22:17;;;;;;;9.75;6.28;;;;;;;9.31;87.66;101308.31;5105849;28;20058;-65
2022/05/25 05:24:42;;;;;;;7.68;5.22;;;;;;;9.35;87.59;101301.75;5099584;28;20059;-66
2022/05/25 05:27:08;;;;;;;10.98;5.35;;;;;;;9.40;87.30;101301.47;5100963;28;20443;-66
2022/05/25 05:29:34;;;;;;;11.73;5.97;;;;;;;9.43;87.39;101299.44;5095535;28;20036;-66
2022/05/25 05:31:59;;;;;;;9.85;5.22;;;;;;;9.49;86.92;101308.19;5100928;28;20048;-65
2022/05/25 05:34:28;;;;;;;10.52;5.57;;;;;;;9.54;87.19;101295.22;5092523;28;20124;-69
2022/05/25 05:37:07;;;;;;;12.00;6.13;;;;;;;9.59;87.27;101290.38;5098331;28;20038;-66
2022/05/25 05:39:36;;;;;;;16.52;6.20;;;;;;;9.62;87.24;101296.50;5107668;28;20039;-69
2022/05/25 05:42:12;;;;;;;12.52;6.30;;;;;;;9.67;86.93;101288.06;5109018;28;20031;-70
2022/05/25 05:44:41;;;;;;;11.25;6.80;;;;;;;9.71;87.19;101282.34;5111169;28;20062;-68
2022/05/25 05:47:12;;;;;;;10.85;6.15;;;;;;;9.75;87.73;101283.03;5110966;28;20077;-70
2022/05/25 05:49:39;;;;;;;13.73;6.00;;;;;;;9.80;87.38;101289.06;5109996;28;20406;-66
2022/05/25 05:52:05;;;;;;;8.35;5.60;;;;;;;9.85;86.36;101288.75;5092299;28;20139;-70
2022/05/25 05:54:31;;;;;;;10.90;5.97;;;;;;;9.89;86.79;101288.47;5109714;28;20101;-70
2022/05/25 05:56:57;;;;;;;8.90;5.93;;;;;;;9.94;87.08;101288.19;5108287;28;20486;-71
2022/05/25 05:59:22;;;;;;;11.40;5.82;;;;;;;9.98;86.45;101295.19;5110708;27;20020;-66
2022/05/25 06:01:48;;;;;;;10.27;6.30;;;;;;;10.03;87.31;101292.19;5106147;28;20036;-69
2022/05/25 06:04:13;;;;;;;12.55;6.32;;;;;;;10.08;87.60;101299.06;5091162;28;20620;-70
2022/05/25 06:06:38;;;;;;;10.90;6.55;;;;;;;10.13;86.72;101302.38;5110376;28;20039;-65
2022/05/25 06:09:04;;;;;;;10.65;6.13;;;;;;;10.18;87.24;101302.94;5109727;28;20118;-66
2022/05/25 06:11:30;;;;;;;9.88;5.82;;;;;;;10.23;87.13;101305.38;5107147;28;20026;-72
2022/05/25 06:13:55;;;;;;;9.00;6.55;;;;;;;10.30;87.17;101312.19;5094552;28;20445;-66
2022/05/25 06:22:07;;;;;;;13.32;6.93;;;;;;;10.68;86.47;101320.63;5087585;28;20411;-67
2022/05/25 06:24:44;;;;;;;12.65;6.82;;;;;;;10.91;85.98;101332.72;5099586;28;20128;-70
2022/05/25 06:27:12;;;;;;;11.45;6.43;;;;;;;11.10;86.26;101326.03;5098190;28;20043;-69
2022/05/25 06:29:47;;;;;;;12.18;7.43;;;;;;;11.31;85.72;101330.03;5106928;28;20023;-71
2022/05/25 06:32:18;;;;;;;12.93;8.00;;;;;;;11.45;84.71;101329.09;5110451;28;20034;-65
2022/05/25 06:34:47;;;;;;;15.45;8.88;;;;;;;11.58;84.40;101342.75;5108399;28;20047;-71
2022/05/25 06:37:15;;;;;;;15.25;7.57;;;;;;;11.64;83.83;101336.88;5110113;28;20032;-72
2022/05/25 06:39:41;;;;;;;13.57;7.95;;;;;;;11.77;83.44;101345.94;5106533;28;20080;-69
2022/05/25 06:42:07;;;;;;;15.15;8.02;;;;;;;11.93;83.80;101337.59;5108446;28;20500;-67
2022/05/25 06:44:32;;;;;;;14.75;8.63;;;;;;;12.18;83.39;101344.94;5109137;28;20036;-71
2022/05/25 06:46:57;;;;;;;19.17;10.82;;;;;;;12.28;82.19;101347.88;5109385;28;20390;-71
2022/05/25 06:49:23;;;;;;;21.73;12.55;;;;;;;12.28;81.62;101337.84;5107414;28;20059;-65
2022/05/25 06:51:48;;;;;;;26.63;12.38;;;;;;;12.27;81.05;101355.19;5110296;28;20016;-68
2022/05/25 06:54:16;;;;;;;24.13;13.05;;;;;;;12.25;81.33;101357.13;5108088;28;20051;-69
2022/05/25 06:56:41;;;;;;;23.80;15.38;;;;;;;12.23;80.42;101349.06;5107425;28;20399;-67
2022/05/25 06:59:07;;;;;;;24.63;15.68;;;;;;;12.28;80.97;101351.47;5110146;28;20035;-71
2022/05/25 07:01:34;;;;;;;21.48;14.65;;;;;;;12.41;81.22;101357.81;5108404;28;20046;-68
2022/05/25 07:03:59;;;;;;;25.20;16.85;;;;;;;12.54;80.83;101359.63;5110390;28;20034;-71
2022/05/25 07:06:25;;;;;;;22.90;15.75;;;;;;;12.63;80.45;101364.41;5110081;28;20020;-71
2022/05/25 07:08:51;;;;;;;24.05;15.60;;;;;;;12.68;79.50;101359.50;5109065;28;20081;-65
2022/05/25 07:11:18;;;;;;;20.60;13.75;;;;;;;12.76;79.44;101355.22;5105920;28;20078;-71
2022/05/25 07:13:43;;;;;;;19.08;12.52;;;;;;;12.82;79.60;101369.41;5109862;28;20032;-69
2022/05/25 07:16:13;;;;;;;17.83;9.70;;;;;;;12.82;78.53;101366.66;5110117;28;20043;-67
2022/05/25 07:18:39;;;;;;;15.55;9.93;;;;;;;12.84;78.33;101381.09;5109610;28;20035;-69
2022/05/25 07:21:09;;;;;;;15.25;9.38;;;;;;;12.81;78.43;101375.84;5108865;28;20114;-66
2022/05/25 07:23:36;;;;;;;12.27;7.95;;;;;;;12.89;78.92;101378.91;5110047;28;20020;-65
2022/05/25 07:26:02;;;;;;;11.65;7.95;;;;;;;12.89;78.80;101385.22;5108079;28;20168;-68
2022/05/25 07:28:28;;;;;;;12.27;9.13;;;;;;;12.99;78.79;101388.16;5113705;28;20063;-65
2022/05/25 07:31:01;;;;;;;14.63;9.38;;;;;;;13.16;78.21;101381.44;5113573;28;20490;-70
2022/05/25 07:33:27;;;;;;;;;;;;;;;13.40;79.06;101387.81;5114430;28;20027;-70
2022/05/25 07:35:52;;;;;;;13.80;9.02;;;;;;;13.55;77.03;101385.78;5112963;28;20705;-65
2022/05/25 07:38:17;;;;;;;17.75;8.63;;;;;;;13.67;77.38;101384.00;5112179;28;20410;-69
2022/05/25 07:40:44;;;;;;;15.13;8.73;;;;;;;13.63;75.55;101383.34;5111596;28;20116;-65
2022/05/25 07:43:15;;;;;;;16.33;8.98;;;;;;;13.63;76.25;101386.09;5110815;28;20097;-69
2022/05/25 07:45:41;;;;;;;15.93;8.80;;;;;;;13.68;76.38;101383.00;5113416;28;20114;-72
2022/05/25 07:48:07;;;;;;;14.30;8.27;;;;;;;13.73;76.13;101388.97;5111368;28;20182;-71
2022/05/25 07:50:33;;;;;;;15.10;9.30;;;;;;;13.79;75.88;101388.50;5113361;28;20039;-68
2022/05/25 07:53:00;;;;;;;17.60;9.20;;;;;;;13.84;76.03;101397.22;5112371;28;20110;-71
2022/05/25 07:55:26;;;;;;;12.52;8.45;;;;;;;14.02;76.80;101390.31;5110106;28;20036;-66
2022/05/25 07:57:51;;;;;;;16.77;9.27;;;;;;;14.20;75.09;101393.47;5112024;28;20049;-65
2022/05/25 08:00:19;;;;;;;13.90;8.52;;;;;;;14.48;74.12;101396.78;5126999;27;20035;-71
2022/05/25 08:05:43;;;;;;;10.68;8.23;;;;;;;14.97;72.61;101388.19;5112188;28;20108;-68
2022/05/25 08:08:16;;;;;;;15.57;7.75;;;;;;;15.34;73.17;101390.63;5112930;28;20121;-66
2022/05/25 08:10:44;;;;;;;11.10;7.68;;;;;;;15.87;72.56;101393.44;5110504;28;20042;-66
2022/05/25 08:13:14;;;;;;;13.23;7.40;;;;;;;16.34;71.84;101404.91;5111941;27;20028;-71
2022/05/25 08:15:42;;;;;;;11.60;6.32;;;;;;;16.48;67.17;101401.81;5112845;28;20032;-71
2022/05/25 08:18:09;;;;;;;14.10;6.15;;;;;;;16.58;69.88;101399.13;5111580;28;20035;-71
2022/05/25 08:20:35;;;;;;;8.05;5.82;;;;;;;17.18;68.69;101393.75;5112675;28;20038;-67
2022/05/25 08:23:04;;;;;;;9.88;5.45;;;;;;;17.34;65.89;101394.06;5112919;28;20043;-65
2022/05/25 08:25:29;;;;;;;10.02;6.13;;;;;;;17.28;66.02;101401.00;5110087;28;20031;-69
2022/05/25 08:27:54;;;;;;;8.10;5.18;;;;;;;17.51;66.69;101389.78;5110313;28;20036;-67
2022/05/25 08:30:20;;;;;;;7.85;4.47;;;;;;;17.91;65.39;101391.56;5112549;28;20028;-69
2022/05/25 08:32:47;;;;;;;8.82;4.72;;;;;;;18.14;61.48;101384.75;5112617;28;20097;-65
2022/05/25 08:35:15;;;;;;;8.82;4.13;;;;;;;18.66;63.20;101385.19;5109863;28;20035;-66
2022/05/25 08:37:41;;;;;;;6.68;3.90;;;;;;;18.98;61.58;101387.56;5098944;28;20041;-65
2022/05/25 08:40:09;;;;;;;9.07;4.90;;;;;;;19.14;59.49;101386.88;5108993;28;20019;-70
2022/05/25 08:42:45;;;;;;;8.55;4.53;;;;;;;19.19;60.49;101386.41;5111118;28;20387;-65
2022/05/25 08:45:11;;;;;;;5.43;4.13;;;;;;;19.63;58.84;101387.44;5112165;28;20379;-70
2022/05/25 08:47:44;;;;;;;6.43;3.92;;;;;;;19.71;56.28;101378.41;5110693;28;20105;-71
2022/05/25 08:50:10;;;;;;;8.32;4.10;;;;;;;19.52;57.42;101374.72;5110973;28;20095;-71
2022/05/25 08:52:36;;;;;;;7.32;4.18;;;;;;;19.60;56.82;101379.50;5111802;28;20538;-65
2022/05/25 08:55:06;;;;;;;8.32;3.90;;;;;;;20.02;56.37;101373.34;5108392;28;20043;-65
2022/05/25 08:57:49;;;;;;;9.13;3.40;;;;;;;20.44;57.75;101384.53;5111025;28;20414;-65
2022/05/25 09:00:17;;;;;;;7.68;3.15;;;;;;;20.46;54.56;101376.06;5111685;28;20035;-66
2022/05/25 09:02:57;;;;;;;4.15;2.88;;;;;;;20.47;54.88;101373.19;5105511;28;20505;-66
2022/05/25 09:05:38;;;;;;;5.97;2.83;;;;;;;20.95;58.53;101374.50;5110795;28;20868;-65
2022/05/25 09:08:26;;;;;;;8.45;2.92;;;;;;;20.74;52.17;101382.31;5111540;28;20031;-70
2022/05/25 09:10:58;;;;;;;3.28;2.08;;;;;;;20.41;53.53;101381.22;5100029;28;20038;-71
2022/05/25 09:13:39;;;;;;;5.30;2.00;;;;;;;20.53;55.77;101379.97;5110226;28;20092;-65
2022/05/25 09:16:16;;;;;;;8.60;2.28;;;;;;;21.08;52.37;101380.44;5110905;28;20035;-69
2022/05/25 09:19:06;;;;;;;4.25;2.30;;;;;;;21.13;53.64;101378.03;5111479;28;20376;-68
2022/05/25 09:21:43;;;;;;;3.92;1.52;;;;;;;21.51;51.94;101383.19;5102862;28;20044;-70
2022/05/25 09:24:16;;;;;;;8.13;1.90;;;;;;;21.87;51.10;101379.09;5110220;28;20031;-67
2022/05/25 09:26:42;;;;;;;6.65;1.70;;;;;;;21.59;46.84;101386.84;5108338;28;20028;-66
2022/05/25 09:29:09;;;;;;;5.82;2.00;;;;;;;21.17;47.69;101392.41;5110588;28;20474;-69
2022/05/25 09:31:49;;;;;;;4.50;2.03;;;;;;;20.81;52.45;101398.09;5111195;28;20428;-65
2022/05/25 09:34:25;;;;;;;4.18;1.80;;;;;;;20.55;53.76;101391.72;5111135;28;20092;-69
2022/05/25 09:36:57;;;;;;;2.83;1.38;;;;;;;20.83;52.33;101400.69;5110089;28;20040;-70
2022/05/25 09:39:45;;;;;;;3.50;1.55;;;;;;;20.70;51.43;101398.38;5109942;28;20028;-66
2022/05/25 09:42:16;;;;;;;3.00;1.55;;;;;;;20.24;50.14;101400.47;5100388;28;20669;-70
2022/05/25 09:44:42;;;;;;;2.50;1.67;;;;;;;20.24;49.80;101399.59;5111028;28;20045;-65
2022/05/25 09:47:18;;;;;;;3.92;1.35;;;;;;;20.22;51.25;101402.50;5109397;28;20122;-65
2022/05/25 09:49:48;;;;;;;3.25;1.40;;;;;;;20.46;49.06;101396.28;5110004;28;20104;-65
2022/05/25 09:52:22;;;;;;;2.83;1.55;;;;;;;20.32;46.47;101406.03;5110849;28;20027;-67
2022/05/25 09:54:58;;;;;;;5.53;1.50;;;;;;;19.85;48.92;101405.44;5108427;28;20031;-68
2022/05/25 09:57:28;;;;;;;4.45;1.50;;;;;;;19.32;48.21;101404.34;5102810;28;20035;-65
2022/05/25 10:00:02;;;;;;;1.35;1.10;;;;;;;19.65;50.37;101410.25;5109416;28;20437;-67
2022/05/25 10:02:37;;;;;;;4.13;1.65;;;;;;;20.08;50.47;101420.50;5107646;28;20044;-66
2022/05/25 10:05:14;;;;;;;2.90;1.30;;;;;;;20.41;48.00;101417.16;5111280;28;20040;-69
2022/05/25 10:08:08;;;;;;;2.42;1.45;;;;;;;20.17;49.39;101407.66;5110554;28;20425;-71
2022/05/25 10:10:55;;;;;;;3.92;1.52;;;;;;;20.37;51.98;101423.00;5107476;28;20038;-67
2022/05/25 10:13:23;;;;;;;5.63;1.75;;;;;;;20.93;51.09;101418.03;5109498;28;20035;-68
2022/05/25 10:15:51;;;;;;;5.88;1.20;;;;;;;21.36;50.67;101400.47;5110534;28;20042;-65
2022/05/25 10:18:34;;;;;;;3.35;1.10;;;;;;;21.54;46.20;101392.03;5109551;28;20402;-65
2022/05/25 10:21:01;;;;;;;2.85;1.00;;;;;;;21.65;45.82;101404.69;5110973;28;20398;-69
2022/05/25 10:23:27;;;;;;;2.17;1.08;;;;;;;21.75;44.16;101407.31;5108063;28;20071;-66
2022/05/25 10:25:54;;;;;;;2.35;0.98;;;;;;;21.70;43.44;101401.41;5108450;28;20108;-65
2022/05/25 10:28:32;;;;;;;2.63;0.80;;;;;;;21.63;45.25;101413.16;5109137;28;20051;-71
2022/05/25 10:36:58;;;;;;;3.88;0.93;;;;;;;22.05;44.39;101400.22;5108423;28;20070;-69
2022/05/25 10:39:26;;;;;;;2.72;0.90;;;;;;;22.19;44.50;101396.78;5108893;28;20474;-70
2022/05/25 10:42:04;;;;;;;4.82;1.00;;;;;;;22.34;43.99;101392.31;5107513;28;20035;-66
2022/05/25 10:44:38;;;;;;;2.78;1.08;;;;;;;22.44;45.62;101388.47;5110560;28;20413;-70
2022/05/25 10:47:14;;;;;;;4.28;1.17;;;;;;;22.54;41.74;101384.47;5109402;28;20031;-69
2022/05/25 10:49:43;;;;;;;4.15;1.30;;;;;;;22.77;39.47;101381.81;5110088;28;20050;-65
2022/05/25 10:52:21;;;;;;;5.85;0.95;;;;;;;22.79;41.43;101379.72;5109996;28;20475;-70
2022/05/25 10:54:50;;;;;;;2.78;1.02;;;;;;;23.00;42.21;101392.19;5106989;28;20089;-67
2022/05/25 10:57:49;;;;;;;3.03;1.20;;;;;;;22.99;42.30;101395.97;5109007;28;20095;-71
2022/05/25 11:00:18;;;;;;;4.55;1.10;;;;;;;22.87;41.71;101381.59;5102120;28;20043;-65
2022/05/25 11:02:55;;;;;;;2.67;1.00;;;;;;;23.00;42.91;101381.94;5107808;27;20503;-70
2022/05/25 11:05:44;;;;;;;4.50;1.23;;;;;;;23.31;44.07;101381.94;5113960;28;20035;-66
2022/05/25 11:08:47;;;;;;;1.95;0.90;;;;;;;23.32;39.47;101396.72;5113013;28;20058;-68
2022/05/25 11:11:30;;;;;;;3.55;0.85;;;;;;;23.59;42.64;101393.44;5103822;28;20376;-69
2022/05/25 11:14:37;;;;;;;2.13;0.90;;;;;;;23.79;42.98;101379.13;5113818;28;20372;-70
2022/05/25 11:17:24;;;;;;;4.18;0.80;;;;;;;23.85;42.08;101387.56;5113757;27;20043;-66
2022/05/25 11:20:24;;;;;;;6.97;1.00;;;;;;;23.67;40.06;101376.75;5113167;28;20047;-66
2022/05/25 11:23:20;;;;;;;2.25;0.90;;;;;;;23.19;41.85;101380.66;5113875;28;20035;-70
2022/05/25 11:26:09;;;;;;;5.22;0.90;;;;;;;23.23;41.85;101389.50;5111472;28;20028;-69
2022/05/25 11:28:50;;;;;;;4.35;1.50;;;;;;;22.96;41.21;101374.16;5113534;28;20035;-66
2022/05/25 11:31:27;;;;;;;1.42;0.80;;;;;;;23.04;43.50;101371.34;5113405;28;20047;-71
2022/05/25 11:34:15;;;;;;;3.05;0.95;;;;;;;23.13;41.68;101373.91;5112090;28;20031;-66
2022/05/25 11:37:08;;;;;;;3.10;1.23;;;;;;;23.13;42.47;101361.94;5112476;28;20112;-71
2022/05/25 11:39:51;;;;;;;2.17;1.15;;;;;;;23.12;42.28;101365.75;5102361;28;20043;-69
2022/05/25 11:42:30;;;;;;;1.08;0.95;;;;;;;23.09;41.61;101363.34;5112095;28;20507;-65
2022/05/25 11:45:05;;;;;;;7.38;1.00;;;;;;;22.71;38.26;101357.56;5111962;28;20032;-71
2022/05/25 11:47:55;;;;;;;4.18;0.75;;;;;;;22.51;40.48;101365.41;5113580;28;20046;-65
2022/05/25 11:50:37;;;;;;;2.22;0.88;;;;;;;22.19;42.89;101359.91;5113194;28;20554;-71
2022/05/25 11:53:24;;;;;;;3.03;1.05;;;;;;;21.98;40.75;101363.19;5113526;28;20034;-70
2022/05/25 11:55:59;;;;;;;2.72;0.90;;;;;;;21.36;40.13;101366.38;5110231;28;20066;-71
2022/05/25 11:58:41;;;;;;;9.90;1.02;;;;;;;20.90;39.75;101371.38;5111021;28;20403;-71
2022/05/25 12:01:28;;;;;;;6.55;1.17;;;;;;;20.68;44.62;101372.78;5113019;28;20431;-70
2022/05/25 12:04:07;;;;;;;2.60;0.90;;;;;;;20.82;45.73;101379.63;5113024;28;20372;-72
2022/05/25 12:06:50;;;;;;;2.55;1.10;;;;;;;20.75;45.05;101371.13;5112270;28;20035;-70